sensor_id;sensor_type;location;lat;lon;timestamp;pressure;altitude;pressure_sealevel;temperature;humidity
30554;BME280;17335;50.720;7.452;2022-11-20T00:01:24;98867.72;;;1.58;100.00
30554;BME280;17335;50.720;7.452;2022-11-20T00:03:53;98864.22;;;1.58;100.00
30554;BME280;17335;50.720;7.452;2022-11-20T00:06:21;98866.09;;;1.56;100.00
30554;BME280;17335;50.720;7.452;2022-11-20T00:08:48;98864.00;;;1.61;100.00
30554;BME280;17335;50.720;7.452;2022-11-20T00:11:17;98860.72;;;1.57;100.00
30554;BME280;17335;50.720;7.452;2022-11-20T00:13:45;98852.13;;;1.54;100.00
30554;BME280;17335;50.720;7.452;2022-11-20T00:16:15;98855.44;;;1.57;100.00
30554;BME280;17335;50.720;7.452;2022-11-20T00:18:43;98844.66;;;1.60;100.00
30554;BME280;17335;50.720;7.452;2022-11-20T00:21:13;98842.94;;;1.59;100.00
30554;BME280;17335;50.720;7.452;2022-11-20T00:23:41;98850.25;;;1.56;100.00
30554;BME280;17335;50.720;7.452;2022-11-20T00:26:10;98839.59;;;1.70;100.00
30554;BME280;17335;50.720;7.452;2022-11-20T00:28:37;98835.66;;;1.63;100.00
30554;BME280;17335;50.720;7.452;2022-11-20T00:31:13;98846.94;;;1.52;100.00
30554;BME280;17335;50.720;7.452;2022-11-20T00:33:40;98857.97;;;1.59;100.00
30554;BME280;17335;50.720;7.452;2022-11-20T00:36:09;98846.44;;;1.60;100.00
30554;BME280;17335;50.720;7.452;2022-11-20T00:38:37;98845.88;;;1.55;100.00
30554;BME280;17335;50.720;7.452;2022-11-20T00:41:06;98850.03;;;1.59;100.00
30554;BME280;17335;50.720;7.452;2022-11-20T00:43:33;98847.19;;;1.62;100.00
30554;BME280;17335;50.720;7.452;2022-11-20T00:46:03;98844.56;;;1.62;100.00
30554;BME280;17335;50.720;7.452;2022-11-20T00:48:31;98856.38;;;1.56;100.00
30554;BME280;17335;50.720;7.452;2022-11-20T00:50:58;98858.91;;;1.58;100.00
30554;BME280;17335;50.720;7.452;2022-11-20T00:53:25;98861.38;;;1.61;100.00
30554;BME280;17335;50.720;7.452;2022-11-20T00:55:53;98852.28;;;1.65;100.00
30554;BME280;17335;50.720;7.452;2022-11-20T00:58:21;98848.88;;;1.63;100.00
30554;BME280;17335;50.720;7.452;2022-11-20T01:00:48;98853.72;;;1.56;100.00
30554;BME280;17335;50.720;7.452;2022-11-20T01:03:17;98849.50;;;1.54;100.00
30554;BME280;17335;50.720;7.452;2022-11-20T01:05:51;98858.16;;;1.56;100.00
30554;BME280;17335;50.720;7.452;2022-11-20T01:08:17;98866.38;;;1.65;100.00
30554;BME280;17335;50.720;7.452;2022-11-20T01:10:44;98873.16;;;1.69;100.00
30554;BME280;17335;50.720;7.452;2022-11-20T01:13:10;98868.13;;;1.65;100.00
30554;BME280;17335;50.720;7.452;2022-11-20T01:16:02;98861.81;;;1.67;100.00
30554;BME280;17335;50.720;7.452;2022-11-20T01:18:29;98859.28;;;1.66;100.00
30554;BME280;17335;50.720;7.452;2022-11-20T01:21:00;98853.88;;;1.67;100.00
30554;BME280;17335;50.720;7.452;2022-11-20T01:23:30;98853.88;;;1.67;100.00
30554;BME280;17335;50.720;7.452;2022-11-20T01:25:57;98850.41;;;1.67;100.00
30554;BME280;17335;50.720;7.452;2022-11-20T01:28:25;98852.88;;;1.56;100.00
30554;BME280;17335;50.720;7.452;2022-11-20T01:30:52;98840.50;;;1.56;100.00
30554;BME280;17335;50.720;7.452;2022-11-20T01:33:19;98844.00;;;1.57;100.00
30554;BME280;17335;50.720;7.452;2022-11-20T01:35:45;98845.69;;;1.58;100.00
30554;BME280;17335;50.720;7.452;2022-11-20T01:38:12;98828.72;;;1.47;100.00
30554;BME280;17335;50.720;7.452;2022-11-20T01:40:38;98834.19;;;1.44;100.00
30554;BME280;17335;50.720;7.452;2022-11-20T01:43:16;98825.78;;;1.52;100.00
30554;BME280;17335;50.720;7.452;2022-11-20T01:48:37;98821.53;;;1.49;100.00
30554;BME280;17335;50.720;7.452;2022-11-20T01:51:10;98812.00;;;1.47;100.00
30554;BME280;17335;50.720;7.452;2022-11-20T01:53:39;98807.34;;;1.38;100.00
30554;BME280;17335;50.720;7.452;2022-11-20T01:56:13;98815.56;;;1.33;100.00
30554;BME280;17335;50.720;7.452;2022-11-20T01:58:47;98809.16;;;1.23;100.00
30554;BME280;17335;50.720;7.452;2022-11-20T02:01:15;98807.06;;;1.28;100.00
30554;BME280;17335;50.720;7.452;2022-11-20T02:03:42;98812.91;;;1.33;100.00
30554;BME280;17335;50.720;7.452;2022-11-20T02:06:17;98818.94;;;1.35;100.00
30554;BME280;17335;50.720;7.452;2022-11-20T02:08:45;98823.06;;;1.39;100.00
30554;BME280;17335;50.720;7.452;2022-11-20T02:11:12;98817.59;;;1.42;100.00
30554;BME280;17335;50.720;7.452;2022-11-20T02:13:39;98810.31;;;1.46;100.00
30554;BME280;17335;50.720;7.452;2022-11-20T02:16:25;98813.81;;;1.46;100.00
30554;BME280;17335;50.720;7.452;2022-11-20T02:18:54;98822.69;;;1.45;100.00
30554;BME280;17335;50.720;7.452;2022-11-20T02:21:37;98828.53;;;1.50;100.00
30554;BME280;17335;50.720;7.452;2022-11-20T02:24:13;98815.13;;;1.39;100.00
30554;BME280;17335;50.720;7.452;2022-11-20T02:26:51;98826.88;;;1.35;100.00
30554;BME280;17335;50.720;7.452;2022-11-20T02:29:24;98825.06;;;1.36;100.00
30554;BME280;17335;50.720;7.452;2022-11-20T02:31:54;98827.88;;;1.47;100.00
30554;BME280;17335;50.720;7.452;2022-11-20T02:34:22;98838.50;;;1.60;100.00
30554;BME280;17335;50.720;7.452;2022-11-20T02:36:49;98840.00;;;1.64;100.00
30554;BME280;17335;50.720;7.452;2022-11-20T02:39:16;98840.19;;;1.61;100.00
30554;BME280;17335;50.720;7.452;2022-11-20T02:41:44;98837.34;;;1.64;100.00
30554;BME280;17335;50.720;7.452;2022-11-20T02:44:10;98839.28;;;1.75;100.00
30554;BME280;17335;50.720;7.452;2022-11-20T02:46:37;98830.91;;;1.68;100.00
30554;BME280;17335;50.720;7.452;2022-11-20T02:49:04;98834.06;;;1.60;100.00
30554;BME280;17335;50.720;7.452;2022-11-20T02:51:31;98826.88;;;1.62;100.00
30554;BME280;17335;50.720;7.452;2022-11-20T02:53:58;98828.88;;;1.59;100.00
30554;BME280;17335;50.720;7.452;2022-11-20T02:56:25;98823.16;;;1.65;100.00
30554;BME280;17335;50.720;7.452;2022-11-20T02:58:51;98826.34;;;1.70;100.00
30554;BME280;17335;50.720;7.452;2022-11-20T03:01:18;98819.84;;;1.76;100.00
30554;BME280;17335;50.720;7.452;2022-11-20T03:03:45;98805.81;;;1.61;100.00
30554;BME280;17335;50.720;7.452;2022-11-20T03:06:12;98811.00;;;1.62;100.00
30554;BME280;17335;50.720;7.452;2022-11-20T03:08:40;98809.94;;;1.65;100.00
30554;BME280;17335;50.720;7.452;2022-11-20T03:11:07;98804.38;;;1.42;100.00
30554;BME280;17335;50.720;7.452;2022-11-20T03:13:34;98800.97;;;1.40;100.00
30554;BME280;17335;50.720;7.452;2022-11-20T03:16:12;98790.78;;;1.34;100.00
30554;BME280;17335;50.720;7.452;2022-11-20T03:18:40;98798.44;;;1.39;100.00
30554;BME280;17335;50.720;7.452;2022-11-20T03:21:09;98802.28;;;1.47;100.00
30554;BME280;17335;50.720;7.452;2022-11-20T03:23:36;98792.56;;;1.48;100.00
30554;BME280;17335;50.720;7.452;2022-11-20T03:26:08;98784.47;;;1.37;100.00
30554;BME280;17335;50.720;7.452;2022-11-20T03:28:35;98788.50;;;1.42;100.00
30554;BME280;17335;50.720;7.452;2022-11-20T03:31:07;98784.91;;;1.43;100.00
30554;BME280;17335;50.720;7.452;2022-11-20T03:33:34;98782.72;;;1.50;100.00
30554;BME280;17335;50.720;7.452;2022-11-20T03:36:06;98792.78;;;1.58;100.00
30554;BME280;17335;50.720;7.452;2022-11-20T03:38:34;98801.34;;;1.61;100.00
30554;BME280;17335;50.720;7.452;2022-11-20T03:41:06;98800.13;;;1.67;100.00
30554;BME280;17335;50.720;7.452;2022-11-20T03:43:33;98803.50;;;1.69;100.00
30554;BME280;17335;50.720;7.452;2022-11-20T03:46:00;98800.44;;;1.75;100.00
30554;BME280;17335;50.720;7.452;2022-11-20T03:48:27;98795.03;;;1.77;100.00
30554;BME280;17335;50.720;7.452;2022-11-20T03:51:09;98789.66;;;1.78;100.00
30554;BME280;17335;50.720;7.452;2022-11-20T03:53:37;98793.69;;;1.84;100.00
30554;BME280;17335;50.720;7.452;2022-11-20T03:56:04;98793.69;;;1.84;100.00
30554;BME280;17335;50.720;7.452;2022-11-20T03:58:33;98793.03;;;1.80;100.00
30554;BME280;17335;50.720;7.452;2022-11-20T04:01:17;98798.13;;;1.83;100.00
30554;BME280;17335;50.720;7.452;2022-11-20T04:03:44;98801.03;;;2.06;100.00
30554;BME280;17335;50.720;7.452;2022-11-20T04:06:15;98793.28;;;1.90;100.00
30554;BME280;17335;50.720;7.452;2022-11-20T04:08:43;98798.78;;;1.87;100.00
30554;BME280;17335;50.720;7.452;2022-11-20T04:11:18;98799.63;;;1.87;100.00
30554;BME280;17335;50.720;7.452;2022-11-20T04:13:53;98785.63;;;1.85;100.00
30554;BME280;17335;50.720;7.452;2022-11-20T04:16:20;98781.22;;;1.86;100.00
30554;BME280;17335;50.720;7.452;2022-11-20T04:18:51;98783.31;;;1.81;100.00
30554;BME280;17335;50.720;7.452;2022-11-20T04:21:19;98789.44;;;1.81;100.00
30554;BME280;17335;50.720;7.452;2022-11-20T04:23:45;98772.84;;;1.79;100.00
30554;BME280;17335;50.720;7.452;2022-11-20T04:26:12;98767.75;;;1.63;100.00
30554;BME280;17335;50.720;7.452;2022-11-20T04:28:39;98765.94;;;1.64;100.00
30554;BME280;17335;50.720;7.452;2022-11-20T04:31:08;98769.31;;;1.66;100.00
30554;BME280;17335;50.720;7.452;2022-11-20T04:33:36;98782.25;;;1.71;100.00
30554;BME280;17335;50.720;7.452;2022-11-20T04:36:05;98773.13;;;1.75;100.00
30554;BME280;17335;50.720;7.452;2022-11-20T04:38:32;98779.81;;;1.80;100.00
30554;BME280;17335;50.720;7.452;2022-11-20T04:41:00;98779.81;;;1.80;100.00
30554;BME280;17335;50.720;7.452;2022-11-20T04:43:28;98773.28;;;1.86;100.00
30554;BME280;17335;50.720;7.452;2022-11-20T04:45:56;98776.97;;;1.83;100.00
30554;BME280;17335;50.720;7.452;2022-11-20T04:48:23;98767.53;;;1.79;100.00
30554;BME280;17335;50.720;7.452;2022-11-20T04:50:51;98770.00;;;1.82;100.00
30554;BME280;17335;50.720;7.452;2022-11-20T04:53:18;98770.19;;;1.79;100.00
30554;BME280;17335;50.720;7.452;2022-11-20T04:55:45;98755.34;;;1.77;100.00
30554;BME280;17335;50.720;7.452;2022-11-20T04:58:12;98756.44;;;1.74;100.00
30554;BME280;17335;50.720;7.452;2022-11-20T05:00:39;98750.50;;;1.83;100.00
30554;BME280;17335;50.720;7.452;2022-11-20T05:03:05;98754.53;;;1.76;100.00
30554;BME280;17335;50.720;7.452;2022-11-20T05:05:33;98771.13;;;1.78;100.00
30554;BME280;17335;50.720;7.452;2022-11-20T05:08:00;98766.03;;;1.75;100.00
30554;BME280;17335;50.720;7.452;2022-11-20T05:10:27;98765.00;;;1.78;100.00
30554;BME280;17335;50.720;7.452;2022-11-20T05:12:53;98767.44;;;1.81;100.00
30554;BME280;17335;50.720;7.452;2022-11-20T05:15:20;98763.94;;;1.80;100.00
30554;BME280;17335;50.720;7.452;2022-11-20T05:17:50;98766.28;;;1.85;100.00
30554;BME280;17335;50.720;7.452;2022-11-20T05:20:17;98763.63;;;1.85;100.00
30554;BME280;17335;50.720;7.452;2022-11-20T05:22:44;98766.19;;;1.86;100.00
30554;BME280;17335;50.720;7.452;2022-11-20T05:25:11;98765.97;;;1.90;100.00
30554;BME280;17335;50.720;7.452;2022-11-20T05:27:37;98766.19;;;1.86;100.00
30554;BME280;17335;50.720;7.452;2022-11-20T05:30:05;98761.81;;;1.85;100.00
30554;BME280;17335;50.720;7.452;2022-11-20T05:32:31;98763.63;;;1.85;100.00
30554;BME280;17335;50.720;7.452;2022-11-20T05:34:58;98761.72;;;1.87;100.00
30554;BME280;17335;50.720;7.452;2022-11-20T05:37:24;98755.78;;;1.83;100.00
30554;BME280;17335;50.720;7.452;2022-11-20T05:39:51;98761.81;;;1.85;100.00
30554;BME280;17335;50.720;7.452;2022-11-20T05:42:17;98757.28;;;1.87;100.00
30554;BME280;17335;50.720;7.452;2022-11-20T05:45:01;98760.88;;;1.86;100.00
30554;BME280;17335;50.720;7.452;2022-11-20T05:47:32;98762.78;;;1.84;100.00
30554;BME280;17335;50.720;7.452;2022-11-20T05:49:59;98764.47;;;1.85;100.00
30554;BME280;17335;50.720;7.452;2022-11-20T05:52:28;98766.28;;;1.85;100.00
30554;BME280;17335;50.720;7.452;2022-11-20T05:54:55;98769.66;;;1.87;100.00
30554;BME280;17335;50.720;7.452;2022-11-20T05:57:22;98771.06;;;1.93;100.00
30554;BME280;17335;50.720;7.452;2022-11-20T05:59:48;98764.91;;;1.92;100.00
30554;BME280;17335;50.720;7.452;2022-11-20T06:02:15;98758.78;;;1.92;100.00
30554;BME280;17335;50.720;7.452;2022-11-20T06:04:41;98772.75;;;1.94;100.00
30554;BME280;17335;50.720;7.452;2022-11-20T06:07:08;98779.09;;;1.91;100.00
30554;BME280;17335;50.720;7.452;2022-11-20T06:09:34;98778.88;;;1.94;100.00
30554;BME280;17335;50.720;7.452;2022-11-20T06:12:03;98785.25;;;1.92;100.00
30554;BME280;17335;50.720;7.452;2022-11-20T06:14:29;98790.13;;;1.98;100.00
30554;BME280;17335;50.720;7.452;2022-11-20T06:16:56;98789.25;;;1.97;100.00
30554;BME280;17335;50.720;7.452;2022-11-20T06:19:22;98782.19;;;1.98;100.00
30554;BME280;17335;50.720;7.452;2022-11-20T06:21:50;98778.66;;;1.97;100.00
30554;BME280;17335;50.720;7.452;2022-11-20T06:24:17;98784.16;;;1.94;100.00
30554;BME280;17335;50.720;7.452;2022-11-20T06:26:44;98783.22;;;1.95;100.00
30554;BME280;17335;50.720;7.452;2022-11-20T06:29:11;98795.72;;;1.93;100.00
30554;BME280;17335;50.720;7.452;2022-11-20T06:31:37;98786.72;;;1.96;100.00
30554;BME280;17335;50.720;7.452;2022-11-20T06:34:04;98785.91;;;2.08;100.00
30554;BME280;17335;50.720;7.452;2022-11-20T06:36:32;98792.66;;;1.99;100.00
30554;BME280;17335;50.720;7.452;2022-11-20T06:39:00;98791.16;;;1.82;100.00
30554;BME280;17335;50.720;7.452;2022-11-20T06:41:27;98792.00;;;1.96;100.00
30554;BME280;17335;50.720;7.452;2022-11-20T06:43:54;98784.84;;;1.98;100.00
30554;BME280;17335;50.720;7.452;2022-11-20T06:46:21;98785.63;;;1.85;100.00
30554;BME280;17335;50.720;7.452;2022-11-20T06:48:49;98790.69;;;1.63;100.00
30554;BME280;17335;50.720;7.452;2022-11-20T06:51:18;98789.59;;;1.53;100.00
30554;BME280;17335;50.720;7.452;2022-11-20T06:53:44;98798.06;;;1.58;100.00
30554;BME280;17335;50.720;7.452;2022-11-20T06:56:11;98796.97;;;1.47;100.00
30554;BME280;17335;50.720;7.452;2022-11-20T06:58:38;98799.63;;;1.47;100.00
30554;BME280;17335;50.720;7.452;2022-11-20T07:01:08;98798.59;;;1.50;100.00
30554;BME280;17335;50.720;7.452;2022-11-20T07:03:35;98802.28;;;1.47;100.00
30554;BME280;17335;50.720;7.452;2022-11-20T07:06:04;98812.66;;;1.50;100.00
30554;BME280;17335;50.720;7.452;2022-11-20T07:08:31;98814.47;;;1.63;100.00
30554;BME280;17335;50.720;7.452;2022-11-20T07:11:02;98810.25;;;1.60;100.00
30554;BME280;17335;50.720;7.452;2022-11-20T07:13:29;98805.63;;;1.64;100.00
30554;BME280;17335;50.720;7.452;2022-11-20T07:16:03;98803.81;;;1.64;100.00
30554;BME280;17335;50.720;7.452;2022-11-20T07:18:30;98814.00;;;1.71;100.00
30554;BME280;17335;50.720;7.452;2022-11-20T07:21:03;98813.03;;;1.72;100.00
30554;BME280;17335;50.720;7.452;2022-11-20T07:23:31;98827.66;;;1.77;100.00
30554;BME280;17335;50.720;7.452;2022-11-20T07:26:02;98830.72;;;1.84;100.00
30554;BME280;17335;50.720;7.452;2022-11-20T07:28:29;98825.34;;;1.85;100.00
30554;BME280;17335;50.720;7.452;2022-11-20T07:30:55;98832.34;;;1.86;100.00
30554;BME280;17335;50.720;7.452;2022-11-20T07:33:22;98834.75;;;1.77;100.00
30554;BME280;17335;50.720;7.452;2022-11-20T07:35:48;98841.75;;;1.78;100.00
30554;BME280;17335;50.720;7.452;2022-11-20T07:38:14;98833.59;;;1.81;100.00
30554;BME280;17335;50.720;7.452;2022-11-20T07:40:41;98831.59;;;1.84;100.00
30554;BME280;17335;50.720;7.452;2022-11-20T07:43:08;98827.59;;;1.92;100.00
30554;BME280;17335;50.720;7.452;2022-11-20T07:45:34;98830.88;;;1.82;100.00
30554;BME280;17335;50.720;7.452;2022-11-20T07:48:03;98832.34;;;1.86;100.00
30554;BME280;17335;50.720;7.452;2022-11-20T07:50:30;98834.25;;;1.97;100.00
30554;BME280;17335;50.720;7.452;2022-11-20T07:53:04;98823.78;;;1.96;100.00
30554;BME280;17335;50.720;7.452;2022-11-20T07:55:31;98821.22;;;1.94;100.00
30554;BME280;17335;50.720;7.452;2022-11-20T07:57:58;98820.94;;;1.99;100.00
30554;BME280;17335;50.720;7.452;2022-11-20T08:00:25;98826.66;;;1.93;100.00
30554;BME280;17335;50.720;7.452;2022-11-20T08:02:53;98817.25;;;2.01;100.00
30554;BME280;17335;50.720;7.452;2022-11-20T08:05:19;98829.75;;;2.12;100.00
30554;BME280;17335;50.720;7.452;2022-11-20T08:07:46;98821.59;;;2.15;100.00
30554;BME280;17335;50.720;7.452;2022-11-20T08:10:14;98830.81;;;2.22;100.00
30554;BME280;17335;50.720;7.452;2022-11-20T08:12:51;98823.84;;;2.34;100.00
30554;BME280;17335;50.720;7.452;2022-11-20T08:15:38;98820.84;;;2.39;100.00
30554;BME280;17335;50.720;7.452;2022-11-20T08:18:10;98822.75;;;2.37;100.00
30554;BME280;17335;50.720;7.452;2022-11-20T08:20:58;98821.81;;;2.38;100.00
30554;BME280;17335;50.720;7.452;2022-11-20T08:23:24;98821.16;;;2.47;100.00
30554;BME280;17335;50.720;7.452;2022-11-20T08:25:50;98819.59;;;2.44;100.00
30554;BME280;17335;50.720;7.452;2022-11-20T08:28:17;98822.25;;;2.44;100.00
30554;BME280;17335;50.720;7.452;2022-11-20T08:30:47;98833.56;;;2.47;100.00
30554;BME280;17335;50.720;7.452;2022-11-20T08:33:14;98833.25;;;2.51;100.00
30554;BME280;17335;50.720;7.452;2022-11-20T08:35:40;98835.25;;;2.35;100.00
30554;BME280;17335;50.720;7.452;2022-11-20T08:38:08;98835.25;;;2.35;100.00
30554;BME280;17335;50.720;7.452;2022-11-20T08:40:35;98832.50;;;2.49;100.00
30554;BME280;17335;50.720;7.452;2022-11-20T08:43:01;98838.03;;;2.59;100.00
30554;BME280;17335;50.720;7.452;2022-11-20T08:45:28;98833.78;;;2.69;100.00
30554;BME280;17335;50.720;7.452;2022-11-20T08:48:00;98828.88;;;2.76;100.00
30554;BME280;17335;50.720;7.452;2022-11-20T08:50:27;98836.19;;;2.85;100.00
30554;BME280;17335;50.720;7.452;2022-11-20T08:52:53;98826.50;;;2.97;100.00
30554;BME280;17335;50.720;7.452;2022-11-20T08:55:20;98826.19;;;3.02;100.00
30554;BME280;17335;50.720;7.452;2022-11-20T08:57:46;98823.84;;;3.10;100.00
30554;BME280;17335;50.720;7.452;2022-11-20T09:00:16;98824.41;;;3.26;100.00
30554;BME280;17335;50.720;7.452;2022-11-20T09:02:43;98818.38;;;3.24;100.00
30554;BME280;17335;50.720;7.452;2022-11-20T09:05:09;98827.97;;;3.14;100.00
30554;BME280;17335;50.720;7.452;2022-11-20T09:07:36;98823.19;;;3.19;100.00
30554;BME280;17335;50.720;7.452;2022-11-20T09:10:03;98824.41;;;3.26;100.00
30554;BME280;17335;50.720;7.452;2022-11-20T09:12:49;98824.72;;;3.34;100.00
30554;BME280;17335;50.720;7.452;2022-11-20T09:15:17;98824.72;;;3.34;100.00
30554;BME280;17335;50.720;7.452;2022-11-20T09:17:53;98818.41;;;3.48;100.00
30554;BME280;17335;50.720;7.452;2022-11-20T09:20:21;98814.91;;;3.48;100.00
30554;BME280;17335;50.720;7.452;2022-11-20T09:22:48;98824.91;;;3.44;100.00
30554;BME280;17335;50.720;7.452;2022-11-20T09:25:14;98829.22;;;3.45;100.00
30554;BME280;17335;50.720;7.452;2022-11-20T09:27:41;98821.88;;;3.49;100.00
30554;BME280;17335;50.720;7.452;2022-11-20T09:30:13;98822.28;;;3.55;100.00
30554;BME280;17335;50.720;7.452;2022-11-20T09:32:40;98821.50;;;3.66;100.00
30554;BME280;17335;50.720;7.452;2022-11-20T09:35:07;98821.53;;;3.78;100.00
30554;BME280;17335;50.720;7.452;2022-11-20T09:37:34;98817.00;;;3.91;100.00
30554;BME280;17335;50.720;7.452;2022-11-20T09:40:01;98822.22;;;3.92;100.00
30554;BME280;17335;50.720;7.452;2022-11-20T09:42:32;98820.63;;;3.90;100.00
30554;BME280;17335;50.720;7.452;2022-11-20T09:45:17;98817.34;;;3.86;100.00
30554;BME280;17335;50.720;7.452;2022-11-20T09:56:03;98805.47;;;4.03;100.00
30554;BME280;17335;50.720;7.452;2022-11-20T09:58:40;98801.13;;;4.13;100.00
30554;BME280;17335;50.720;7.452;2022-11-20T10:01:12;98795.53;;;3.94;100.00
30554;BME280;17335;50.720;7.452;2022-11-20T10:04:03;98792.16;;;3.92;100.00
30554;BME280;17335;50.720;7.452;2022-11-20T10:06:33;98783.72;;;3.98;100.00
30554;BME280;17335;50.720;7.452;2022-11-20T10:20:12;98791.66;;;4.34;100.00
30554;BME280;17335;50.720;7.452;2022-11-20T10:25:15;98776.28;;;4.48;100.00
30554;BME280;17335;50.720;7.452;2022-11-20T10:30:37;98756.97;;;4.58;100.00
30554;BME280;17335;50.720;7.452;2022-11-20T10:33:19;98751.91;;;4.55;100.00
30554;BME280;17335;50.720;7.452;2022-11-20T10:38:46;98759.41;;;4.49;100.00
30554;BME280;17335;50.720;7.452;2022-11-20T10:41:21;98761.81;;;4.41;100.00
30554;BME280;17335;50.720;7.452;2022-11-20T10:44:14;98750.81;;;4.46;100.00
30554;BME280;17335;50.720;7.452;2022-11-20T10:47:03;98742.09;;;4.55;100.00
30554;BME280;17335;50.720;7.452;2022-11-20T10:49:33;98748.16;;;4.68;100.00
30554;BME280;17335;50.720;7.452;2022-11-20T11:00:35;98707.56;;;5.10;100.00
30554;BME280;17335;50.720;7.452;2022-11-20T11:03:02;98707.69;;;5.08;100.00
30554;BME280;17335;50.720;7.452;2022-11-20T11:05:47;98706.38;;;5.03;100.00
30554;BME280;17335;50.720;7.452;2022-11-20T11:08:17;98706.59;;;5.11;100.00
30554;BME280;17335;50.720;7.452;2022-11-20T11:10:54;98711.34;;;5.07;100.00
30554;BME280;17335;50.720;7.452;2022-11-20T11:13:23;98706.50;;;5.01;100.00
30554;BME280;17335;50.720;7.452;2022-11-20T11:15:50;98700.84;;;4.95;100.00
30554;BME280;17335;50.720;7.452;2022-11-20T11:18:28;98705.19;;;4.96;100.00
30554;BME280;17335;50.720;7.452;2022-11-20T11:20:57;98704.69;;;5.02;100.00
30554;BME280;17335;50.720;7.452;2022-11-20T11:26:00;98688.53;;;4.94;100.00
30554;BME280;17335;50.720;7.452;2022-11-20T11:28:27;98688.53;;;4.94;100.00
30554;BME280;17335;50.720;7.452;2022-11-20T11:30:55;98686.81;;;4.93;100.00
30554;BME280;17335;50.720;7.452;2022-11-20T11:33:24;98684.88;;;4.95;100.00
30554;BME280;17335;50.720;7.452;2022-11-20T11:35:56;98679.97;;;4.90;100.00
30554;BME280;17335;50.720;7.452;2022-11-20T11:40:56;98680.31;;;4.85;100.00
30554;BME280;17335;50.720;7.452;2022-11-20T11:43:26;98677.78;;;4.84;100.00
30554;BME280;17335;50.720;7.452;2022-11-20T11:51:41;98670.44;;;5.08;100.00
30554;BME280;17335;50.720;7.452;2022-11-20T11:54:22;98668.22;;;5.25;100.00
30554;BME280;17335;50.720;7.452;2022-11-20T11:56:50;98663.59;;;5.27;100.00
30554;BME280;17335;50.720;7.452;2022-11-20T12:05:22;98657.78;;;5.33;100.00
30554;BME280;17335;50.720;7.452;2022-11-20T12:10:40;98653.66;;;5.29;100.00
30554;BME280;17335;50.720;7.452;2022-11-20T12:15:59;98646.13;;;5.13;100.00
30554;BME280;17335;50.720;7.452;2022-11-20T12:18:27;98641.94;;;5.11;100.00
30554;BME280;17335;50.720;7.452;2022-11-20T12:37:37;98604.47;;;5.66;100.00
30554;BME280;17335;50.720;7.452;2022-11-20T12:43:23;98589.84;;;5.60;100.00
30554;BME280;17335;50.720;7.452;2022-11-20T12:51:48;98579.34;;;5.58;100.00
30554;BME280;17335;50.720;7.452;2022-11-20T12:54:46;98578.44;;;5.69;100.00
30554;BME280;17335;50.720;7.452;2022-11-20T13:00:16;98588.91;;;5.71;100.00
30554;BME280;17335;50.720;7.452;2022-11-20T13:03:09;98579.16;;;5.81;100.00
30554;BME280;17335;50.720;7.452;2022-11-20T13:06:18;98573.69;;;5.73;100.00
30554;BME280;17335;50.720;7.452;2022-11-20T13:08:50;98565.75;;;5.61;100.00
30554;BME280;17335;50.720;7.452;2022-11-20T13:11:44;98563.81;;;5.63;100.00
30554;BME280;17335;50.720;7.452;2022-11-20T13:14:42;98567.81;;;5.79;100.00
30554;BME280;17335;50.720;7.452;2022-11-20T13:17:19;98559.91;;;5.68;100.00
30554;BME280;17335;50.720;7.452;2022-11-20T13:19:56;98554.28;;;5.61;100.00
30554;BME280;17335;50.720;7.452;2022-11-20T13:22:42;98552.38;;;5.73;100.00
30554;BME280;17335;50.720;7.452;2022-11-20T13:25:10;98538.63;;;5.68;100.00
30554;BME280;17335;50.720;7.452;2022-11-20T13:27:47;98538.03;;;5.64;100.00
30554;BME280;17335;50.720;7.452;2022-11-20T13:30:17;98535.09;;;5.67;100.00
30554;BME280;17335;50.720;7.452;2022-11-20T13:32:54;98530.75;;;5.66;100.00
30554;BME280;17335;50.720;7.452;2022-11-20T13:35:32;98530.63;;;5.68;100.00
30554;BME280;17335;50.720;7.452;2022-11-20T13:38:10;98528.56;;;5.81;100.00
30554;BME280;17335;50.720;7.452;2022-11-20T13:40:51;98516.53;;;5.87;100.00
30554;BME280;17335;50.720;7.452;2022-11-20T13:46:00;98517.19;;;5.79;100.00
30554;BME280;17335;50.720;7.452;2022-11-20T13:51:51;98508.94;;;5.82;100.00
30554;BME280;17335;50.720;7.452;2022-11-20T14:00:22;98494.38;;;5.86;100.00
30554;BME280;17335;50.720;7.452;2022-11-20T14:03:02;98497.09;;;5.96;100.00
30554;BME280;17335;50.720;7.452;2022-11-20T14:05:36;98486.94;;;5.80;100.00
30554;BME280;17335;50.720;7.452;2022-11-20T14:08:06;98483.44;;;5.79;100.00
30554;BME280;17335;50.720;7.452;2022-11-20T14:10:37;98484.28;;;5.80;100.00
30554;BME280;17335;50.720;7.452;2022-11-20T14:13:19;98488.59;;;5.71;100.00
30554;BME280;17335;50.720;7.452;2022-11-20T14:15:46;98477.78;;;5.63;100.00
30554;BME280;17335;50.720;7.452;2022-11-20T14:18:19;98470.34;;;5.67;100.00
30554;BME280;17335;50.720;7.452;2022-11-20T14:20:46;98468.81;;;5.64;100.00
30554;BME280;17335;50.720;7.452;2022-11-20T14:23:26;98461.22;;;5.59;100.00
30554;BME280;17335;50.720;7.452;2022-11-20T14:25:55;98457.00;;;5.57;100.00
30554;BME280;17335;50.720;7.452;2022-11-20T14:28:30;98459.66;;;5.57;100.00
30554;BME280;17335;50.720;7.452;2022-11-20T14:30:57;98457.44;;;5.62;100.00
30554;BME280;17335;50.720;7.452;2022-11-20T14:33:25;98454.75;;;5.52;100.00
30554;BME280;17335;50.720;7.452;2022-11-20T14:35:55;98452.53;;;5.57;100.00
30554;BME280;17335;50.720;7.452;2022-11-20T14:38:28;98444.13;;;5.52;100.00
30554;BME280;17335;50.720;7.452;2022-11-20T14:41:05;98436.25;;;5.51;100.00
30554;BME280;17335;50.720;7.452;2022-11-20T14:43:32;98436.66;;;5.46;100.00
30554;BME280;17335;50.720;7.452;2022-11-20T14:46:05;98440.47;;;5.53;100.00
30554;BME280;17335;50.720;7.452;2022-11-20T14:48:45;98442.28;;;5.53;100.00
30554;BME280;17335;50.720;7.452;2022-11-20T14:51:36;98438.47;;;5.45;100.00
30554;BME280;17335;50.720;7.452;2022-11-20T14:54:11;98430.53;;;5.55;100.00
30554;BME280;17335;50.720;7.452;2022-11-20T14:56:38;98428.41;;;5.49;100.00
30554;BME280;17335;50.720;7.452;2022-11-20T14:59:04;98428.41;;;5.49;100.00